createdAt,value
2023-04-26T00:00:34.830Z,3.40
2023-04-26T00:03:03.402Z,3.27
2023-04-26T00:05:31.573Z,2.53
2023-04-26T00:07:59.585Z,2.43
2023-04-26T00:10:26.887Z,3.83
2023-04-26T00:12:54.135Z,3.17
2023-04-26T00:15:21.457Z,4.00
2023-04-26T00:17:49.972Z,2.53
2023-04-26T00:20:17.436Z,2.70
2023-04-26T00:22:45.882Z,3.37
2023-04-26T00:25:13.376Z,3.67
2023-04-26T00:27:40.876Z,3.50
2023-04-26T00:30:09.874Z,3.40
2023-04-26T00:32:37.168Z,3.27
2023-04-26T00:35:05.600Z,2.63
2023-04-26T00:37:32.912Z,3.20
2023-04-26T00:40:00.861Z,3.07
2023-04-26T00:42:28.219Z,3.77
2023-04-26T00:44:56.751Z,4.27
2023-04-26T00:47:25.504Z,4.03
2023-04-26T00:49:53.426Z,3.27
2023-04-26T00:52:27.520Z,3.33
2023-04-26T00:54:55.665Z,4.10
2023-04-26T00:57:23.815Z,3.80
2023-04-26T00:59:51.039Z,3.37
2023-04-26T01:02:18.704Z,3.27
2023-04-26T01:04:46.093Z,2.93
2023-04-26T01:07:13.411Z,3.50
2023-04-26T01:09:42.335Z,3.47
2023-04-26T01:12:10.264Z,3.03
2023-04-26T01:14:39.179Z,4.00
2023-04-26T01:17:07.222Z,2.33
2023-04-26T01:19:36.812Z,4.40
2023-04-26T01:22:04.114Z,3.30
2023-04-26T01:24:35.399Z,3.40
2023-04-26T01:27:03.422Z,3.80
2023-04-26T01:29:31.584Z,3.30
2023-04-26T01:31:58.806Z,3.30
2023-04-26T01:34:26.077Z,3.80
2023-04-26T01:36:53.444Z,2.70
2023-04-26T01:39:21.065Z,3.40
2023-04-26T01:41:48.981Z,3.43
2023-04-26T01:44:16.400Z,3.77
2023-04-26T01:46:44.281Z,2.97
2023-04-26T01:49:11.833Z,2.83
2023-04-26T01:51:39.147Z,2.90
2023-04-26T01:54:06.635Z,2.70
2023-04-26T01:56:33.926Z,3.60
2023-04-26T01:59:01.842Z,3.10
2023-04-26T02:01:29.122Z,2.73
2023-04-26T02:03:56.496Z,3.77
2023-04-26T02:06:23.802Z,3.20
2023-04-26T02:08:52.056Z,3.67
2023-04-26T02:11:19.539Z,3.03
2023-04-26T02:13:46.807Z,2.70
2023-04-26T02:16:15.736Z,2.70
2023-04-26T02:18:43.686Z,3.10
2023-04-26T02:21:11.811Z,2.93
2023-04-26T02:23:39.289Z,4.00
2023-04-26T02:26:06.588Z,2.70
2023-04-26T02:28:33.867Z,2.90
2023-04-26T02:31:02.651Z,3.00
2023-04-26T02:33:30.655Z,3.60
2023-04-26T02:35:57.918Z,3.10
2023-04-26T02:38:26.630Z,2.70
2023-04-26T02:40:59.090Z,3.50
2023-04-26T02:43:26.475Z,3.60
2023-04-26T02:45:53.730Z,4.13
2023-04-26T02:48:21.051Z,3.63
2023-04-26T02:50:49.003Z,3.57
2023-04-26T02:53:17.224Z,3.47
2023-04-26T02:55:44.506Z,4.50
2023-04-26T02:58:12.782Z,2.70
2023-04-26T03:00:45.545Z,3.83
2023-04-26T03:03:13.432Z,3.00
2023-04-26T03:05:41.231Z,3.30
2023-04-26T03:08:09.167Z,5.13
2023-04-26T03:10:36.516Z,3.27
2023-04-26T03:13:04.993Z,2.93
2023-04-26T03:15:32.455Z,3.90
2023-04-26T03:18:00.232Z,2.80
2023-04-26T03:20:27.901Z,3.20
2023-04-26T03:22:55.352Z,2.60
2023-04-26T03:25:23.392Z,2.83
2023-04-26T03:27:50.710Z,2.73
2023-04-26T03:30:18.191Z,2.53
2023-04-26T03:32:45.613Z,2.70
2023-04-26T03:35:12.986Z,4.17
2023-04-26T03:37:40.306Z,5.60
2023-04-26T03:40:09.896Z,2.77
2023-04-26T03:42:38.560Z,2.90
2023-04-26T03:45:07.734Z,2.90
2023-04-26T03:47:35.124Z,2.97
2023-04-26T03:50:02.788Z,3.10
2023-04-26T03:52:30.264Z,4.30
2023-04-26T03:54:57.482Z,2.07
2023-04-26T03:57:25.005Z,2.70
2023-04-26T03:59:53.097Z,3.00
2023-04-26T04:02:20.716Z,2.67
2023-04-26T04:04:48.261Z,2.27
2023-04-26T04:07:15.881Z,2.80
2023-04-26T04:09:43.104Z,2.40
2023-04-26T04:12:10.334Z,2.33
2023-04-26T04:14:37.614Z,3.23
2023-04-26T04:17:05.821Z,3.53
2023-04-26T04:19:33.542Z,3.40
2023-04-26T04:22:00.884Z,3.27
2023-04-26T04:24:32.811Z,2.40
2023-04-26T04:27:02.693Z,3.17
2023-04-26T04:29:30.306Z,5.93
2023-04-26T04:31:57.624Z,3.53
2023-04-26T04:34:25.830Z,2.73
2023-04-26T04:36:53.515Z,4.07
2023-04-26T04:39:20.790Z,3.30
2023-04-26T04:41:48.356Z,2.90
2023-04-26T04:44:16.065Z,4.10
2023-04-26T04:46:43.634Z,3.50
2023-04-26T04:49:12.156Z,3.27
2023-04-26T04:51:40.093Z,1.97
2023-04-26T04:54:13.891Z,3.47
2023-04-26T04:56:41.943Z,3.13
2023-04-26T04:59:09.342Z,4.90
2023-04-26T05:01:37.774Z,4.10
2023-04-26T05:04:06.159Z,3.40
2023-04-26T05:06:33.648Z,3.90
2023-04-26T05:09:01.591Z,3.67
2023-04-26T05:11:28.882Z,2.53
2023-04-26T05:13:56.505Z,3.30
2023-04-26T05:16:24.133Z,4.73
2023-04-26T05:18:51.746Z,4.80
2023-04-26T05:21:19.113Z,4.17
2023-04-26T05:23:46.517Z,5.70
2023-04-26T05:26:16.098Z,4.97
2023-04-26T05:28:43.567Z,4.20
2023-04-26T05:31:11.656Z,3.43
2023-04-26T05:33:39.130Z,3.43
2023-04-26T05:36:08.515Z,3.40
2023-04-26T05:38:37.239Z,2.37
2023-04-26T05:41:04.593Z,4.20
2023-04-26T05:43:35.235Z,3.57
2023-04-26T05:46:02.628Z,5.90
2023-04-26T05:48:29.985Z,6.77
2023-04-26T05:51:00.081Z,7.50
2023-04-26T05:53:27.450Z,7.30
2023-04-26T05:55:54.714Z,5.33
2023-04-26T05:58:21.972Z,5.30
2023-04-26T06:00:49.920Z,4.00
2023-04-26T06:03:18.062Z,4.27
2023-04-26T06:05:45.913Z,3.17
2023-04-26T06:08:13.280Z,3.20
2023-04-26T06:10:40.572Z,3.63
2023-04-26T06:13:07.792Z,2.80
2023-04-26T06:15:35.131Z,2.63
2023-04-26T06:18:04.322Z,2.50
2023-04-26T06:20:31.650Z,2.80
2023-04-26T06:22:58.958Z,2.90
2023-04-26T06:25:26.249Z,2.33
2023-04-26T06:27:53.629Z,2.40
2023-04-26T06:30:22.395Z,3.10
2023-04-26T06:32:49.823Z,3.37
2023-04-26T06:35:17.934Z,2.70
2023-04-26T06:37:45.254Z,2.30
2023-04-26T06:40:15.131Z,3.77
2023-04-26T06:42:42.770Z,2.87
2023-04-26T06:45:12.606Z,3.40
2023-04-26T06:47:47.524Z,2.53
2023-04-26T06:50:21.355Z,2.17
2023-04-26T06:52:50.919Z,2.37
2023-04-26T06:55:18.504Z,2.27
2023-04-26T06:57:46.144Z,2.20
2023-04-26T07:00:14.381Z,2.47
2023-04-26T07:02:41.786Z,2.10
2023-04-26T07:05:09.568Z,2.27
2023-04-26T07:07:37.613Z,3.67
2023-04-26T07:10:05.739Z,1.70
2023-04-26T07:12:33.003Z,1.87
2023-04-26T07:15:00.688Z,1.13
2023-04-26T07:17:28.058Z,2.40
2023-04-26T07:19:56.229Z,2.60
2023-04-26T07:22:23.837Z,2.77
2023-04-26T07:24:51.746Z,2.30
2023-04-26T07:27:18.961Z,2.60
2023-04-26T07:29:46.229Z,2.77
2023-04-26T07:32:13.517Z,2.60
2023-04-26T07:34:41.229Z,3.03
2023-04-26T07:37:08.477Z,2.50
2023-04-26T07:39:35.799Z,2.20
2023-04-26T07:42:03.939Z,2.20
2023-04-26T07:44:31.220Z,3.47
2023-04-26T07:46:58.607Z,2.80
2023-04-26T07:49:25.948Z,3.07
2023-04-26T07:51:54.376Z,2.20
2023-04-26T07:54:21.663Z,2.60
2023-04-26T07:56:49.002Z,2.23
2023-04-26T07:59:17.012Z,2.57
2023-04-26T08:01:44.262Z,2.30
2023-04-26T08:04:11.745Z,2.47
2023-04-26T08:06:44.133Z,1.40
2023-04-26T08:09:11.431Z,1.97
2023-04-26T08:11:38.712Z,1.87
2023-04-26T08:14:05.972Z,1.53
2023-04-26T08:16:33.934Z,2.00
2023-04-26T08:19:02.700Z,1.80
2023-04-26T08:21:30.414Z,2.43
2023-04-26T08:23:58.124Z,2.23
2023-04-26T08:26:25.403Z,2.07
2023-04-26T08:28:52.681Z,1.80
2023-04-26T08:31:22.075Z,1.90
2023-04-26T08:33:50.307Z,1.93
2023-04-26T08:36:17.961Z,2.13
2023-04-26T08:38:45.705Z,2.57
2023-04-26T08:41:15.081Z,2.20
2023-04-26T08:43:42.490Z,2.27
2023-04-26T08:46:13.901Z,2.20
2023-04-26T08:48:41.459Z,2.43
2023-04-26T08:51:12.717Z,2.23
2023-04-26T08:53:40.704Z,2.80
2023-04-26T08:56:10.701Z,2.33
2023-04-26T08:58:38.734Z,2.07
2023-04-26T09:01:06.797Z,1.87
2023-04-26T09:03:34.215Z,1.70
2023-04-26T09:06:04.787Z,1.60
2023-04-26T09:08:36.194Z,3.00
2023-04-26T09:11:04.546Z,2.57
2023-04-26T09:13:31.985Z,2.03
2023-04-26T09:15:59.360Z,1.67
2023-04-26T09:18:26.952Z,2.23
2023-04-26T09:21:08.341Z,1.80
2023-04-26T09:23:36.413Z,2.00
2023-04-26T09:26:17.238Z,2.27
2023-04-26T09:28:45.735Z,2.47
2023-04-26T09:31:22.642Z,2.40
2023-04-26T09:34:03.417Z,1.70
2023-04-26T09:36:31.114Z,2.37
2023-04-26T09:39:00.389Z,1.63
2023-04-26T09:41:43.464Z,2.20
2023-04-26T09:44:22.692Z,2.70
2023-04-26T09:47:03.813Z,2.40
2023-04-26T09:49:32.780Z,2.30
2023-04-26T09:52:06.793Z,2.40
2023-04-26T09:54:45.624Z,2.60
2023-04-26T09:57:14.728Z,2.60
2023-04-26T09:59:43.547Z,2.27
2023-04-26T10:02:19.529Z,2.20
2023-04-26T10:04:48.895Z,2.27
2023-04-26T10:07:17.744Z,2.30
2023-04-26T10:09:46.385Z,1.47
2023-04-26T10:12:15.011Z,1.63
2023-04-26T10:14:43.469Z,2.00
2023-04-26T10:17:11.469Z,2.10
2023-04-26T10:19:40.580Z,2.50
2023-04-26T10:22:12.328Z,1.90
2023-04-26T10:24:40.283Z,2.20
2023-04-26T10:27:08.201Z,2.13
2023-04-26T10:30:08.508Z,2.17
2023-04-26T10:33:16.774Z,1.87
2023-04-26T10:36:10.024Z,2.43
2023-04-26T10:38:39.540Z,2.83
2023-04-26T10:41:32.037Z,2.27
2023-04-26T10:44:22.381Z,2.40
2023-04-26T10:46:51.340Z,2.50
2023-04-26T10:49:23.200Z,2.50
2023-04-26T10:52:11.920Z,2.80
2023-04-26T10:55:04.531Z,2.80
2023-04-26T10:57:48.967Z,1.83
2023-04-26T11:00:30.004Z,2.67
2023-04-26T11:03:16.905Z,2.67
2023-04-26T11:06:05.439Z,2.83
2023-04-26T11:08:33.583Z,1.80
2023-04-26T11:11:12.364Z,1.93
2023-04-26T11:13:41.232Z,2.97
2023-04-26T11:16:10.091Z,2.37
2023-04-26T11:18:38.856Z,2.60
2023-04-26T11:21:06.789Z,3.03
2023-04-26T11:23:34.726Z,2.20
2023-04-26T11:26:03.683Z,2.33
2023-04-26T11:28:33.910Z,2.30
2023-04-26T11:31:04.436Z,2.50
2023-04-26T11:33:33.789Z,2.30
2023-04-26T11:36:01.170Z,2.80
2023-04-26T11:38:29.644Z,3.10
2023-04-26T11:40:58.098Z,1.90
2023-04-26T11:43:34.180Z,2.33
2023-04-26T11:46:01.788Z,2.70
2023-04-26T11:48:42.252Z,3.17
2023-04-26T11:51:11.233Z,2.87
2023-04-26T11:53:39.599Z,3.80
2023-04-26T11:56:15.568Z,3.63
2023-04-26T11:58:45.477Z,2.30
2023-04-26T12:01:19.482Z,3.20
2023-04-26T12:03:50.739Z,2.93
2023-04-26T12:06:19.347Z,2.90
2023-04-26T12:08:51.123Z,2.90
2023-04-26T12:11:19.203Z,2.70
2023-04-26T12:13:47.173Z,3.27
2023-04-26T12:16:25.702Z,3.53
2023-04-26T12:18:54.282Z,2.67
2023-04-26T12:21:22.617Z,4.60
2023-04-26T12:23:50.251Z,3.80
2023-04-26T12:26:19.730Z,3.27
2023-04-26T12:28:47.110Z,3.17
2023-04-26T12:31:14.678Z,2.43
2023-04-26T12:33:44.192Z,3.53
2023-04-26T12:36:14.708Z,2.90
2023-04-26T12:39:00.366Z,3.43
2023-04-26T12:41:31.264Z,3.30
2023-04-26T12:44:00.256Z,3.13
2023-04-26T12:46:27.659Z,3.60
2023-04-26T12:48:54.937Z,2.73
2023-04-26T12:51:22.375Z,2.90
2023-04-26T12:53:50.317Z,2.93
2023-04-26T12:56:18.617Z,3.57
2023-04-26T12:58:48.665Z,3.10
2023-04-26T13:01:16.831Z,3.27
2023-04-26T13:03:47.758Z,4.63
2023-04-26T13:06:15.560Z,3.10
2023-04-26T13:08:43.011Z,5.00
2023-04-26T13:11:10.279Z,3.57
2023-04-26T13:13:43.754Z,3.63
2023-04-26T13:16:13.586Z,3.23
2023-04-26T13:18:41.088Z,4.03
2023-04-26T13:21:08.619Z,3.20
2023-04-26T13:23:38.814Z,3.60
2023-04-26T13:26:06.469Z,2.87
2023-04-26T13:28:34.564Z,2.93
2023-04-26T13:31:02.735Z,3.10
2023-04-26T13:33:30.410Z,3.40
2023-04-26T13:35:57.899Z,3.57
2023-04-26T13:38:26.703Z,3.13
2023-04-26T13:40:54.367Z,3.40
2023-04-26T13:43:21.798Z,3.03
2023-04-26T13:45:49.158Z,2.97
2023-04-26T13:48:17.478Z,3.00
2023-04-26T13:50:45.169Z,3.30
2023-04-26T13:53:12.700Z,3.03
2023-04-26T13:55:39.974Z,2.87
2023-04-26T13:58:10.337Z,2.80
2023-04-26T14:00:37.857Z,3.33
2023-04-26T14:03:05.300Z,2.57
2023-04-26T14:05:33.397Z,3.43
2023-04-26T14:08:01.956Z,2.70
2023-04-26T14:10:29.406Z,2.50
2023-04-26T14:12:56.755Z,3.00
2023-04-26T14:15:24.903Z,3.30
2023-04-26T14:17:52.303Z,2.73
2023-04-26T14:20:19.676Z,3.30
2023-04-26T14:22:50.667Z,3.27
2023-04-26T14:25:18.249Z,2.20
2023-04-26T14:27:45.551Z,3.20
2023-04-26T14:30:14.075Z,2.80
2023-04-26T14:32:41.359Z,2.90
2023-04-26T14:35:08.895Z,3.73
2023-04-26T14:37:36.143Z,3.30
2023-04-26T14:40:05.903Z,2.30
2023-04-26T14:42:33.231Z,2.90
2023-04-26T14:45:00.531Z,2.90
2023-04-26T14:47:42.991Z,2.70
2023-04-26T14:50:13.111Z,3.37
2023-04-26T14:52:41.921Z,2.90
2023-04-26T14:55:21.774Z,3.23
2023-04-26T14:57:49.322Z,3.70
2023-04-26T15:00:20.038Z,3.57
2023-04-26T15:02:47.390Z,3.10
2023-04-26T15:05:15.008Z,2.97
2023-04-26T15:07:45.938Z,3.97
2023-04-26T15:10:14.084Z,2.33
2023-04-26T15:12:50.528Z,3.57
2023-04-26T15:15:17.934Z,3.17
2023-04-26T15:17:45.243Z,3.47
2023-04-26T15:20:12.989Z,3.40
2023-04-26T15:22:40.304Z,2.97
2023-04-26T15:25:08.731Z,3.27
2023-04-26T15:27:37.477Z,2.80
2023-04-26T15:30:08.489Z,3.00
2023-04-26T15:32:36.145Z,2.70
2023-04-26T15:35:04.740Z,3.70
2023-04-26T15:37:32.100Z,3.20
2023-04-26T15:40:00.919Z,3.40
2023-04-26T15:42:28.428Z,4.57
2023-04-26T15:44:58.683Z,3.40
2023-04-26T15:47:27.790Z,4.13
2023-04-26T15:50:10.137Z,3.10
2023-04-26T15:52:56.286Z,3.40
2023-04-26T15:58:14.057Z,3.63
2023-04-26T16:00:45.973Z,3.07
2023-04-26T16:03:21.116Z,3.97
2023-04-26T16:05:51.794Z,2.53
2023-04-26T16:08:39.807Z,3.20
2023-04-26T16:11:08.511Z,2.60
2023-04-26T16:13:46.589Z,2.37
2023-04-26T16:16:22.950Z,2.97
2023-04-26T16:19:01.899Z,3.13
2023-04-26T16:21:33.792Z,2.83
2023-04-26T16:24:05.778Z,2.80
2023-04-26T16:26:35.410Z,3.30
2023-04-26T16:29:04.749Z,2.80
2023-04-26T16:32:17.182Z,3.27
2023-04-26T16:35:09.517Z,2.10
2023-04-26T16:37:51.354Z,2.37
2023-04-26T16:40:18.789Z,2.67
2023-04-26T16:42:46.429Z,2.90
2023-04-26T16:45:24.372Z,3.07
2023-04-26T16:47:54.923Z,2.90
2023-04-26T16:50:41.686Z,2.60
2023-04-26T16:53:09.394Z,2.50
2023-04-26T16:55:36.959Z,2.80
2023-04-26T16:58:04.608Z,3.60
2023-04-26T17:00:32.148Z,3.00
2023-04-26T17:02:59.520Z,3.33
2023-04-26T17:05:27.677Z,2.60
2023-04-26T17:07:56.023Z,3.20
2023-04-26T17:10:25.400Z,2.90
2023-04-26T17:12:52.711Z,2.90
2023-04-26T17:15:20.217Z,4.27
2023-04-26T17:17:47.517Z,3.30
2023-04-26T17:20:15.808Z,3.77
2023-04-26T17:22:43.152Z,3.50
2023-04-26T17:25:11.332Z,4.00
2023-04-26T17:27:38.710Z,3.47
2023-04-26T17:30:07.471Z,4.40
2023-04-26T17:32:34.832Z,3.27
2023-04-26T17:35:03.372Z,2.70
2023-04-26T17:37:30.705Z,3.23
2023-04-26T17:39:58.148Z,2.87
2023-04-26T17:42:28.065Z,3.20
2023-04-26T17:44:55.478Z,4.43
2023-04-26T17:47:22.858Z,4.13
2023-04-26T17:49:50.081Z,3.87
2023-04-26T17:52:17.632Z,3.30
2023-04-26T17:54:53.055Z,3.90
2023-04-26T17:57:22.424Z,3.90
2023-04-26T17:59:51.196Z,7.40
2023-04-26T18:02:18.895Z,3.30
2023-04-26T18:04:46.545Z,3.60
2023-04-26T18:07:14.311Z,3.50
2023-04-26T18:09:43.564Z,2.90
2023-04-26T18:12:10.827Z,3.30
2023-04-26T18:14:43.906Z,3.43
2023-04-26T18:17:12.644Z,3.17
2023-04-26T18:19:47.298Z,3.50
2023-04-26T18:22:14.728Z,3.13
2023-04-26T18:24:42.012Z,3.50
2023-04-26T18:27:10.990Z,3.30
2023-04-26T18:29:38.397Z,2.77
2023-04-26T18:32:06.122Z,2.77
2023-04-26T18:34:34.149Z,3.40
2023-04-26T18:37:04.145Z,3.10
2023-04-26T18:39:31.672Z,4.47
2023-04-26T18:41:59.046Z,3.83
2023-04-26T18:44:26.575Z,2.80
2023-04-26T18:46:57.396Z,2.60
2023-04-26T18:49:26.193Z,3.80
2023-04-26T18:51:55.370Z,4.03
2023-04-26T18:54:22.628Z,2.97
2023-04-26T18:56:49.869Z,2.70
2023-04-26T18:59:17.171Z,2.63
2023-04-26T19:01:47.328Z,2.93
2023-04-26T19:04:14.891Z,3.07
2023-04-26T19:06:42.301Z,2.60
2023-04-26T19:09:11.039Z,2.53
2023-04-26T19:11:38.312Z,2.43
2023-04-26T19:14:05.757Z,3.80
2023-04-26T19:16:34.804Z,3.70
2023-04-26T19:19:02.819Z,3.70
2023-04-26T19:21:30.809Z,3.10
2023-04-26T19:23:58.048Z,4.00
2023-04-26T19:26:26.139Z,6.10
2023-04-26T19:28:57.410Z,4.17
2023-04-26T19:31:24.757Z,4.40
2023-04-26T19:33:52.009Z,4.60
2023-04-26T19:36:19.596Z,4.20
2023-04-26T19:38:47.722Z,4.00
2023-04-26T19:41:15.044Z,4.67
2023-04-26T19:43:43.308Z,4.93
2023-04-26T19:46:16.058Z,4.07
2023-04-26T19:48:43.509Z,4.37
2023-04-26T19:51:16.084Z,3.50
2023-04-26T19:53:43.480Z,5.00
2023-04-26T19:56:13.079Z,4.40
2023-04-26T19:58:43.225Z,4.40
2023-04-26T20:01:11.251Z,4.17
2023-04-26T20:03:40.736Z,5.17
2023-04-26T20:06:11.214Z,5.07
2023-04-26T20:08:38.769Z,4.43
2023-04-26T20:11:06.515Z,4.87
2023-04-26T20:13:33.788Z,4.07
2023-04-26T20:16:01.033Z,4.97
2023-04-26T20:18:29.012Z,3.87
2023-04-26T20:20:56.270Z,4.70
2023-04-26T20:23:23.664Z,4.30
2023-04-26T20:25:51.593Z,4.07
2023-04-26T20:28:19.246Z,4.77
2023-04-26T20:30:46.651Z,3.73
2023-04-26T20:33:13.949Z,4.30
2023-04-26T20:35:42.047Z,4.00
2023-04-26T20:38:10.035Z,3.87
2023-04-26T20:40:40.503Z,4.23
2023-04-26T20:43:08.456Z,3.90
2023-04-26T20:45:36.432Z,4.17
2023-04-26T20:48:04.628Z,4.20
2023-04-26T20:50:31.949Z,5.27
2023-04-26T20:52:59.988Z,3.30
2023-04-26T20:55:27.275Z,4.10
2023-04-26T20:57:55.155Z,3.40
2023-04-26T21:00:22.850Z,4.30
2023-04-26T21:02:50.293Z,3.73
2023-04-26T21:05:17.622Z,3.60
2023-04-26T21:07:45.147Z,4.50
2023-04-26T21:10:13.117Z,4.03
2023-04-26T21:12:45.112Z,5.10
2023-04-26T21:15:12.649Z,4.90
2023-04-26T21:17:40.288Z,5.40
2023-04-26T21:20:08.384Z,6.03
2023-04-26T21:22:35.886Z,5.10
2023-04-26T21:25:03.765Z,4.60
2023-04-26T21:27:31.899Z,4.93
2023-04-26T21:29:59.207Z,4.40
2023-04-26T21:32:26.615Z,4.70
2023-04-26T21:34:54.143Z,4.47
2023-04-26T21:37:21.768Z,5.27
2023-04-26T21:39:49.202Z,4.93
2023-04-26T21:42:16.713Z,4.70
2023-04-26T21:44:45.610Z,5.07
2023-04-26T21:47:13.283Z,5.00
2023-04-26T21:49:40.897Z,3.87
2023-04-26T21:52:09.771Z,4.40
2023-04-26T21:54:37.325Z,5.00
2023-04-26T21:57:06.119Z,4.30
2023-04-26T21:59:33.562Z,5.03
2023-04-26T22:02:01.956Z,5.40
2023-04-26T22:04:30.613Z,6.73
2023-04-26T22:06:58.734Z,5.60
2023-04-26T22:09:26.090Z,6.17
2023-04-26T22:11:53.487Z,5.50
2023-04-26T22:14:21.024Z,5.80
2023-04-26T22:16:48.487Z,6.37
2023-04-26T22:19:16.674Z,5.60
2023-04-26T22:21:44.039Z,5.33
2023-04-26T22:24:11.416Z,6.60
2023-04-26T22:26:38.835Z,6.40
2023-04-26T22:29:06.474Z,6.13
2023-04-26T22:31:33.985Z,5.87
2023-04-26T22:34:01.509Z,5.10
2023-04-26T22:36:29.577Z,5.17
2023-04-26T22:38:58.337Z,4.87
2023-04-26T22:41:25.720Z,4.80
2023-04-26T22:43:53.344Z,4.70
2023-04-26T22:46:20.933Z,4.63
2023-04-26T22:48:48.444Z,5.20
2023-04-26T22:51:16.060Z,4.70
2023-04-26T22:53:44.242Z,4.67
2023-04-26T22:56:11.675Z,4.63
2023-04-26T22:58:39.021Z,4.53
2023-04-26T23:01:06.564Z,5.13
2023-04-26T23:03:36.517Z,5.80
2023-04-26T23:06:04.733Z,4.07
2023-04-26T23:08:32.377Z,3.93
2023-04-26T23:11:00.483Z,4.93
2023-04-26T23:13:28.832Z,5.13
2023-04-26T23:15:56.415Z,4.70
2023-04-26T23:18:25.904Z,5.07
2023-04-26T23:20:53.409Z,4.60
2023-04-26T23:23:20.869Z,5.70
2023-04-26T23:25:48.263Z,4.90
2023-04-26T23:28:16.507Z,5.17
2023-04-26T23:30:44.004Z,5.10
2023-04-26T23:33:11.573Z,4.97
2023-04-26T23:35:41.265Z,5.40
2023-04-26T23:38:09.038Z,5.30
2023-04-26T23:40:36.725Z,5.30
2023-04-26T23:43:05.650Z,5.40
2023-04-26T23:45:33.958Z,6.20
2023-04-26T23:48:01.536Z,6.13
2023-04-26T23:50:28.890Z,7.77
2023-04-26T23:52:56.308Z,6.90
2023-04-26T23:55:23.753Z,5.77
2023-04-26T23:57:51.168Z,5.50
